createdAt,value
2022-08-02T00:00:09.154Z,5.00
2022-08-02T00:02:35.893Z,5.00
2022-08-02T00:05:02.647Z,5.20
2022-08-02T00:07:29.547Z,4.50
2022-08-02T00:09:56.276Z,4.50
2022-08-02T00:12:23.094Z,5.60
2022-08-02T00:14:49.985Z,5.87
2022-08-02T00:17:16.713Z,7.53
2022-08-02T00:19:43.458Z,6.43
2022-08-02T00:22:10.696Z,6.43
2022-08-02T00:24:37.703Z,6.70
2022-08-02T00:27:04.928Z,6.87
2022-08-02T00:29:31.793Z,6.40
2022-08-02T00:31:58.537Z,6.90
2022-08-02T00:34:29.961Z,6.83
2022-08-02T00:36:58.875Z,7.50
2022-08-02T00:39:34.441Z,9.33
2022-08-02T00:42:02.596Z,7.17
2022-08-02T00:44:29.328Z,7.47
2022-08-02T00:46:56.076Z,8.63
2022-08-02T00:49:23.042Z,7.43
2022-08-02T00:51:51.191Z,8.60
2022-08-02T00:54:18.178Z,8.03
2022-08-02T00:56:50.091Z,9.50
2022-08-02T00:59:17.816Z,6.90
2022-08-02T01:01:57.104Z,8.27
2022-08-02T01:04:29.816Z,6.90
2022-08-02T01:06:57.651Z,6.87
2022-08-02T01:09:24.410Z,7.03
2022-08-02T01:11:51.188Z,7.20
2022-08-02T01:14:17.973Z,6.73
2022-08-02T01:16:44.713Z,7.70
2022-08-02T01:19:15.906Z,6.43
2022-08-02T01:21:42.998Z,6.40
2022-08-02T01:24:09.822Z,7.23
2022-08-02T01:26:36.548Z,7.57
2022-08-02T01:29:03.421Z,7.43
2022-08-02T01:31:30.145Z,6.00
2022-08-02T01:33:56.875Z,6.13
2022-08-02T01:36:23.733Z,8.03
2022-08-02T01:38:50.618Z,6.23
2022-08-02T01:41:17.399Z,7.43
2022-08-02T01:43:44.283Z,6.50
2022-08-02T01:46:11.021Z,6.07
2022-08-02T01:48:37.799Z,7.73
2022-08-02T01:51:04.629Z,7.13
2022-08-02T01:53:31.360Z,5.73
2022-08-02T01:55:59.049Z,7.40
2022-08-02T01:58:26.039Z,8.50
2022-08-02T02:00:52.850Z,6.30
2022-08-02T02:03:19.639Z,7.50
2022-08-02T02:05:46.445Z,7.43
2022-08-02T02:08:13.165Z,7.07
2022-08-02T02:10:40.080Z,7.93
2022-08-02T02:13:07.026Z,7.83
2022-08-02T02:15:33.778Z,8.00
2022-08-02T02:18:12.894Z,6.93
2022-08-02T02:20:40.438Z,8.37
2022-08-02T02:23:07.214Z,8.00
2022-08-02T02:25:35.968Z,8.10
2022-08-02T02:28:03.338Z,7.20
2022-08-02T02:30:30.196Z,8.10
2022-08-02T02:32:56.924Z,9.07
2022-08-02T02:35:23.747Z,7.73
2022-08-02T02:37:50.476Z,7.97
2022-08-02T02:40:17.239Z,7.40
2022-08-02T02:42:49.126Z,6.93
2022-08-02T02:45:16.298Z,7.70
2022-08-02T02:47:43.059Z,7.63
2022-08-02T02:50:09.943Z,8.83
2022-08-02T02:52:36.689Z,7.30
2022-08-02T02:55:03.420Z,7.80
2022-08-02T02:57:31.420Z,8.23
2022-08-02T03:02:26.032Z,7.47
2022-08-02T03:04:56.992Z,8.07
2022-08-02T03:07:24.662Z,7.50
2022-08-02T03:09:54.307Z,7.17
2022-08-02T03:12:21.577Z,7.47
2022-08-02T03:14:49.353Z,7.20
2022-08-02T03:17:16.661Z,8.50
2022-08-02T03:19:43.536Z,8.70
2022-08-02T03:22:11.621Z,8.47
2022-08-02T03:24:42.889Z,7.90
2022-08-02T03:27:09.621Z,7.83
2022-08-02T03:29:36.390Z,7.87
2022-08-02T03:32:03.183Z,8.10
2022-08-02T03:34:29.924Z,7.73
2022-08-02T03:36:56.676Z,8.03
2022-08-02T03:39:23.462Z,8.33
2022-08-02T03:41:50.200Z,7.70
2022-08-02T03:44:16.957Z,7.90
2022-08-02T03:46:43.739Z,6.63
2022-08-02T03:49:10.514Z,8.30
2022-08-02T03:51:37.350Z,7.37
2022-08-02T03:54:04.125Z,7.27
2022-08-02T03:56:30.864Z,7.57
2022-08-02T03:58:57.602Z,7.80
2022-08-02T04:01:24.632Z,6.77
2022-08-02T04:03:51.396Z,7.93
2022-08-02T04:06:18.135Z,8.13
2022-08-02T04:08:54.151Z,7.80
2022-08-02T04:11:33.278Z,7.73
2022-08-02T04:14:00.141Z,7.17
2022-08-02T04:16:26.942Z,6.70
2022-08-02T04:18:53.705Z,8.00
2022-08-02T04:21:20.560Z,7.50
2022-08-02T04:23:47.426Z,8.10
2022-08-02T04:26:14.204Z,7.67
2022-08-02T04:28:42.207Z,7.60
2022-08-02T04:31:09.250Z,7.80
2022-08-02T04:33:36.043Z,6.13
2022-08-02T04:36:02.857Z,7.57
2022-08-02T04:38:29.671Z,8.30
2022-08-02T04:40:56.428Z,8.07
2022-08-02T04:43:23.254Z,8.77
2022-08-02T04:45:49.968Z,6.90
2022-08-02T04:48:16.689Z,7.70
2022-08-02T04:50:43.485Z,8.57
2022-08-02T04:53:10.230Z,6.83
2022-08-02T04:55:36.975Z,7.50
2022-08-02T04:58:13.576Z,7.47
2022-08-02T05:00:50.639Z,8.30
2022-08-02T05:03:17.612Z,8.23
2022-08-02T05:05:44.353Z,7.13
2022-08-02T05:08:11.128Z,7.97
2022-08-02T05:10:38.087Z,8.23
2022-08-02T05:13:05.428Z,8.90
2022-08-02T05:15:33.518Z,6.93
2022-08-02T05:18:00.475Z,8.33
2022-08-02T05:20:27.338Z,7.73
2022-08-02T05:22:55.328Z,6.93
2022-08-02T05:25:22.304Z,7.30
2022-08-02T05:27:49.041Z,7.97
2022-08-02T05:30:15.826Z,7.13
2022-08-02T05:32:42.621Z,7.80
2022-08-02T05:35:09.348Z,7.63
2022-08-02T05:37:36.109Z,8.33
2022-08-02T05:40:03.155Z,7.30
2022-08-02T05:42:29.871Z,7.67
2022-08-02T05:44:56.592Z,7.40
2022-08-02T05:47:24.339Z,6.93
2022-08-02T05:49:51.130Z,8.50
2022-08-02T05:52:17.987Z,7.30
2022-08-02T05:54:44.773Z,7.67
2022-08-02T05:57:11.522Z,7.80
2022-08-02T05:59:38.258Z,7.77
2022-08-02T06:02:05.276Z,7.23
2022-08-02T06:04:32.056Z,7.50
2022-08-02T06:06:58.832Z,7.20
2022-08-02T06:09:27.204Z,7.53
2022-08-02T06:12:01.615Z,7.30
2022-08-02T06:14:30.715Z,8.00
2022-08-02T06:16:57.793Z,7.77
2022-08-02T06:19:24.587Z,8.23
2022-08-02T06:22:31.918Z,6.80
2022-08-02T06:24:38.137Z,6.70
2022-08-02T06:27:05.022Z,8.20
2022-08-02T06:29:34.467Z,7.70
2022-08-02T06:32:07.236Z,9.10
2022-08-02T06:34:33.965Z,7.50
2022-08-02T06:37:00.738Z,6.87
2022-08-02T06:39:28.286Z,6.37
2022-08-02T06:41:55.007Z,7.03
2022-08-02T06:44:46.746Z,7.00
2022-08-02T06:47:11.112Z,6.77
2022-08-02T06:49:52.599Z,6.70
2022-08-02T06:52:24.302Z,6.37
2022-08-02T06:54:54.366Z,6.57
2022-08-02T06:57:21.329Z,6.67
2022-08-02T06:59:48.220Z,7.50
2022-08-02T07:02:14.954Z,6.83
2022-08-02T07:04:41.729Z,7.00
2022-08-02T07:07:08.449Z,6.60
2022-08-02T07:09:35.210Z,6.40
2022-08-02T07:12:02.235Z,7.10
2022-08-02T07:14:29.023Z,6.87
2022-08-02T07:16:55.755Z,6.20
2022-08-02T07:19:23.885Z,6.50
2022-08-02T07:22:04.347Z,6.97
2022-08-02T07:24:31.295Z,5.93
2022-08-02T07:27:13.845Z,6.20
2022-08-02T07:29:46.625Z,7.10
2022-08-02T07:32:14.331Z,5.80
2022-08-02T07:34:42.610Z,6.30
2022-08-02T07:37:09.804Z,5.63
2022-08-02T07:39:56.476Z,6.97
2022-08-02T07:42:23.263Z,5.50
2022-08-02T07:44:50.106Z,6.30
2022-08-02T07:47:17.013Z,5.27
2022-08-02T07:49:43.768Z,5.17
2022-08-02T07:52:10.781Z,4.93
2022-08-02T07:54:37.694Z,5.60
2022-08-02T07:57:04.442Z,4.57
2022-08-02T07:59:31.172Z,5.47
2022-08-02T08:01:57.985Z,5.67
2022-08-02T08:04:24.829Z,5.20
2022-08-02T08:06:55.349Z,5.10
2022-08-02T08:09:22.141Z,5.90
2022-08-02T08:11:48.924Z,5.00
2022-08-02T08:14:16.969Z,5.10
2022-08-02T08:16:44.075Z,5.27
2022-08-02T08:19:10.918Z,5.00
2022-08-02T08:21:37.951Z,3.93
2022-08-02T08:24:04.892Z,4.40
2022-08-02T08:26:31.708Z,2.90
2022-08-02T08:28:58.608Z,2.60
2022-08-02T08:31:25.489Z,2.57
2022-08-02T08:33:52.775Z,3.37
2022-08-02T08:36:21.439Z,3.27
2022-08-02T08:38:48.928Z,2.73
2022-08-02T08:41:15.772Z,2.20
2022-08-02T08:43:42.543Z,3.13
2022-08-02T08:46:09.417Z,2.40
2022-08-02T08:48:36.183Z,2.50
2022-08-02T08:51:03.156Z,2.67
2022-08-02T08:53:36.711Z,2.17
2022-08-02T08:56:03.945Z,2.67
2022-08-02T08:58:30.752Z,2.60
2022-08-02T09:00:57.607Z,2.60
2022-08-02T09:03:24.418Z,1.93
2022-08-02T09:05:51.281Z,1.93
2022-08-02T09:08:19.131Z,1.63
2022-08-02T09:10:45.898Z,1.77
2022-08-02T09:13:38.535Z,1.97
2022-08-02T09:16:11.717Z,1.93
2022-08-02T09:18:40.446Z,2.03
2022-08-02T09:21:07.198Z,2.10
2022-08-02T09:23:33.940Z,1.87
2022-08-02T09:26:04.507Z,2.13
2022-08-02T09:28:34.084Z,2.27
2022-08-02T09:31:00.853Z,2.00
2022-08-02T09:33:27.656Z,2.27
2022-08-02T09:36:07.355Z,2.10
2022-08-02T09:38:34.690Z,2.40
2022-08-02T09:43:29.427Z,2.07
2022-08-02T09:45:56.791Z,2.00
2022-08-02T09:48:25.178Z,1.80
2022-08-02T09:50:51.992Z,2.60
2022-08-02T09:53:21.081Z,2.17
2022-08-02T09:55:47.799Z,2.13
2022-08-02T09:58:14.520Z,2.13
2022-08-02T10:00:52.380Z,2.60
2022-08-02T10:03:21.891Z,2.90
2022-08-02T10:05:56.199Z,2.10
2022-08-02T10:08:29.184Z,2.30
2022-08-02T10:11:03.671Z,2.20
2022-08-02T10:13:31.114Z,2.43
2022-08-02T10:15:58.099Z,1.73
2022-08-02T10:18:38.206Z,2.07
2022-08-02T10:21:06.563Z,2.50
2022-08-02T10:23:33.602Z,2.33
2022-08-02T10:26:00.530Z,2.50
2022-08-02T10:28:38.016Z,1.80
2022-08-02T10:31:05.526Z,2.17
2022-08-02T10:33:32.332Z,1.90
2022-08-02T10:36:04.528Z,1.90
2022-08-02T10:38:34.489Z,1.93
2022-08-02T10:41:01.573Z,1.70
2022-08-02T10:43:28.402Z,1.70
2022-08-02T10:45:55.141Z,2.03
2022-08-02T10:48:23.090Z,1.90
2022-08-02T10:50:49.875Z,2.10
2022-08-02T10:53:16.846Z,2.22
2022-08-02T10:55:43.696Z,2.17
2022-08-02T10:58:10.516Z,2.00
2022-08-02T11:00:37.488Z,2.13
2022-08-02T11:03:06.333Z,2.30
2022-08-02T11:05:42.266Z,2.08
2022-08-02T11:08:10.942Z,2.60
2022-08-02T11:10:38.686Z,2.23
2022-08-02T11:13:05.560Z,2.10
2022-08-02T11:15:32.396Z,2.13
2022-08-02T11:18:01.221Z,2.20
2022-08-02T11:20:28.149Z,2.20
2022-08-02T11:22:55.339Z,1.95
2022-08-02T11:25:22.567Z,2.30
2022-08-02T11:27:49.491Z,2.17
2022-08-02T11:30:16.770Z,1.83
2022-08-02T11:32:44.198Z,2.10
2022-08-02T11:35:11.283Z,2.20
2022-08-02T11:37:38.201Z,1.83
2022-08-02T11:40:07.130Z,2.05
2022-08-02T11:42:37.059Z,1.85
2022-08-02T11:45:04.439Z,2.53
2022-08-02T11:47:31.743Z,1.83
2022-08-02T11:49:58.871Z,2.33
2022-08-02T11:52:25.639Z,1.85
2022-08-02T11:54:52.384Z,1.85
2022-08-02T11:57:20.817Z,1.88
2022-08-02T11:59:48.110Z,1.88
2022-08-02T12:02:15.244Z,1.90
2022-08-02T12:04:42.174Z,1.70
2022-08-02T12:07:11.344Z,2.00
2022-08-02T12:09:41.306Z,2.22
2022-08-02T12:12:08.338Z,2.28
2022-08-02T12:14:35.296Z,1.70
2022-08-02T12:17:21.121Z,1.63
2022-08-02T12:19:48.195Z,2.47
2022-08-02T12:22:16.410Z,1.80
2022-08-02T12:24:43.840Z,1.88
2022-08-02T12:27:11.348Z,1.85
2022-08-02T12:29:58.122Z,1.90
2022-08-02T12:32:25.647Z,2.20
2022-08-02T12:34:52.530Z,2.33
2022-08-02T12:37:19.240Z,2.47
2022-08-02T12:39:46.130Z,2.28
2022-08-02T12:42:13.022Z,2.15
2022-08-02T12:44:40.502Z,2.25
2022-08-02T12:47:07.501Z,2.25
2022-08-02T12:49:34.405Z,2.50
2022-08-02T12:52:06.415Z,2.38
2022-08-02T12:54:34.083Z,2.33
2022-08-02T12:57:01.122Z,2.13
2022-08-02T12:59:27.868Z,2.28
2022-08-02T13:02:06.079Z,1.92
2022-08-02T13:04:32.875Z,2.65
2022-08-02T13:06:59.644Z,1.92
2022-08-02T13:09:29.419Z,2.63
2022-08-02T13:11:56.479Z,2.17
2022-08-02T13:14:23.253Z,2.17
2022-08-02T13:16:50.248Z,2.20
2022-08-02T13:19:17.048Z,2.38
2022-08-02T13:22:02.420Z,1.98
2022-08-02T13:24:37.962Z,2.28
2022-08-02T13:27:09.020Z,2.08
2022-08-02T13:29:36.364Z,2.22
2022-08-02T13:32:03.459Z,2.60
2022-08-02T13:34:30.213Z,1.90
2022-08-02T13:36:57.485Z,2.22
2022-08-02T13:39:24.645Z,2.00
2022-08-02T13:41:51.614Z,2.33
2022-08-02T13:44:18.576Z,2.20
2022-08-02T13:46:46.110Z,2.42
2022-08-02T13:49:17.840Z,2.10
2022-08-02T13:51:49.344Z,2.00
2022-08-02T13:54:16.083Z,2.30
2022-08-02T13:56:43.025Z,2.35
2022-08-02T13:59:54.210Z,2.47
2022-08-02T14:01:57.262Z,1.95
2022-08-02T14:04:24.109Z,2.60
2022-08-02T14:06:51.004Z,2.00
2022-08-02T14:09:17.818Z,2.25
2022-08-02T14:11:44.601Z,1.83
2022-08-02T14:14:15.921Z,2.22
2022-08-02T14:16:44.393Z,2.58
2022-08-02T14:19:16.048Z,1.73
2022-08-02T14:21:46.337Z,1.80
2022-08-02T14:24:14.564Z,2.17
2022-08-02T14:26:41.299Z,2.10
2022-08-02T14:29:08.308Z,2.10
2022-08-02T14:31:37.902Z,1.83
2022-08-02T14:34:07.064Z,1.80
2022-08-02T14:36:33.857Z,2.40
2022-08-02T14:39:02.262Z,2.25
2022-08-02T14:41:29.034Z,2.03
2022-08-02T14:44:05.100Z,1.92
2022-08-02T14:46:32.008Z,1.98
2022-08-02T14:49:01.904Z,1.83
2022-08-02T14:51:31.955Z,1.50
2022-08-02T14:54:02.492Z,2.28
2022-08-02T14:56:30.235Z,2.30
2022-08-02T14:58:57.107Z,2.25
2022-08-02T15:01:23.875Z,1.85
2022-08-02T15:03:53.003Z,2.25
2022-08-02T15:06:19.919Z,2.10
2022-08-02T15:08:46.658Z,2.10
2022-08-02T15:11:13.456Z,1.73
2022-08-02T15:13:41.160Z,1.80
2022-08-02T15:16:10.026Z,1.67
2022-08-02T15:18:36.906Z,2.30
2022-08-02T15:21:11.736Z,1.98
2022-08-02T15:23:51.041Z,1.98
2022-08-02T15:26:18.123Z,2.08
2022-08-02T15:28:45.016Z,2.03
2022-08-02T15:31:11.807Z,2.90
2022-08-02T15:33:50.134Z,2.30
2022-08-02T15:36:17.173Z,2.35
2022-08-02T15:38:44.132Z,2.25
2022-08-02T15:41:11.019Z,2.20
2022-08-02T15:44:00.725Z,2.22
2022-08-02T15:46:25.700Z,2.10
2022-08-02T15:48:58.920Z,2.55
2022-08-02T15:51:30.731Z,2.30
2022-08-02T15:53:58.149Z,2.55
2022-08-02T15:56:24.896Z,2.55
2022-08-02T15:58:56.835Z,2.40
2022-08-02T16:01:24.217Z,2.22
2022-08-02T16:03:51.140Z,1.92
2022-08-02T16:06:17.957Z,2.05
2022-08-02T16:08:53.311Z,2.55
2022-08-02T16:11:20.745Z,2.33
2022-08-02T16:13:53.628Z,2.28
2022-08-02T16:16:20.948Z,2.47
2022-08-02T16:18:48.006Z,2.28
2022-08-02T16:21:15.102Z,2.30
2022-08-02T16:24:01.111Z,2.30
2022-08-02T16:26:29.532Z,2.67
2022-08-02T16:28:56.288Z,2.33
2022-08-02T16:31:23.938Z,1.50
2022-08-02T16:33:56.502Z,2.45
2022-08-02T16:36:23.831Z,2.08
2022-08-02T16:38:50.774Z,2.17
2022-08-02T16:41:17.560Z,2.08
2022-08-02T16:43:44.352Z,1.98
2022-08-02T16:46:11.305Z,1.80
2022-08-02T16:48:38.115Z,2.17
2022-08-02T16:51:05.472Z,1.60
2022-08-02T16:53:59.113Z,2.72
2022-08-02T16:56:27.711Z,1.95
2022-08-02T16:58:55.283Z,2.33
2022-08-02T17:01:27.436Z,1.80
2022-08-02T17:03:57.038Z,1.58
2022-08-02T17:06:26.212Z,2.10
2022-08-02T17:08:56.411Z,1.77
2022-08-02T17:11:23.834Z,2.28
2022-08-02T17:13:51.296Z,1.70
2022-08-02T17:19:04.892Z,2.20
2022-08-02T17:21:34.108Z,1.85
2022-08-02T17:24:05.660Z,2.08
2022-08-02T17:26:35.394Z,1.83
2022-08-02T17:29:14.150Z,2.10
2022-08-02T17:31:46.473Z,1.90
2022-08-02T17:34:30.944Z,2.22
2022-08-02T17:36:57.780Z,1.73
2022-08-02T17:39:24.611Z,1.95
2022-08-02T17:42:00.964Z,2.00
2022-08-02T17:44:37.553Z,1.80
2022-08-02T17:47:06.529Z,2.28
2022-08-02T17:49:33.407Z,1.85
2022-08-02T17:52:48.012Z,1.90
2022-08-02T17:54:48.596Z,1.75
2022-08-02T17:57:17.439Z,2.42
2022-08-02T17:59:44.509Z,2.35
2022-08-02T18:02:31.293Z,2.22
2022-08-02T18:04:58.109Z,2.15
2022-08-02T18:07:25.433Z,2.28
2022-08-02T18:09:56.943Z,2.00
2022-08-02T18:12:26.806Z,2.55
2022-08-02T18:14:54.496Z,2.45
2022-08-02T18:17:21.371Z,2.17
2022-08-02T18:19:55.344Z,2.55
2022-08-02T18:22:25.026Z,2.58
2022-08-02T18:24:53.588Z,2.58
2022-08-02T18:27:20.421Z,2.05
2022-08-02T18:29:47.432Z,2.15
2022-08-02T18:33:54.211Z,2.45
2022-08-02T18:35:14.119Z,1.70
2022-08-02T18:37:43.870Z,2.30
2022-08-02T18:40:14.798Z,2.22
2022-08-02T18:42:41.637Z,2.28
2022-08-02T18:45:08.433Z,2.40
2022-08-02T18:47:50.742Z,2.30
2022-08-02T18:50:18.098Z,2.17
2022-08-02T18:52:47.590Z,2.92
2022-08-02T18:55:17.245Z,2.53
2022-08-02T18:58:18.632Z,2.30
2022-08-02T19:00:46.716Z,2.13
2022-08-02T19:03:14.471Z,1.63
2022-08-02T19:05:53.303Z,2.08
2022-08-02T19:08:20.748Z,2.03
2022-08-02T19:10:53.209Z,2.08
2022-08-02T19:13:23.042Z,2.10
2022-08-02T19:15:50.210Z,2.22
2022-08-02T19:18:17.069Z,1.95
2022-08-02T19:20:47.999Z,2.00
2022-08-02T19:23:15.275Z,2.30
2022-08-02T19:25:50.146Z,2.10
2022-08-02T19:28:25.830Z,2.20
2022-08-02T19:30:53.488Z,1.90
2022-08-02T19:33:54.477Z,1.98
2022-08-02T19:36:07.488Z,2.10
2022-08-02T19:38:34.435Z,2.22
2022-08-02T19:41:01.754Z,2.45
2022-08-02T19:44:23.662Z,2.20
2022-08-02T19:49:19.909Z,2.40
2022-08-02T19:51:55.018Z,2.60
2022-08-02T19:54:35.810Z,2.03
2022-08-02T19:57:11.094Z,2.50
2022-08-02T19:59:43.907Z,2.47
2022-08-02T20:02:11.245Z,2.00
2022-08-02T20:04:38.513Z,2.77
2022-08-02T20:07:05.386Z,2.23
2022-08-02T20:09:33.525Z,2.40
2022-08-02T20:12:14.503Z,2.50
2022-08-02T20:14:51.218Z,2.33
2022-08-02T20:17:20.703Z,2.20
2022-08-02T20:19:47.883Z,1.93
2022-08-02T20:22:16.169Z,2.00
2022-08-02T20:24:43.416Z,2.57
2022-08-02T20:27:17.000Z,2.50
2022-08-02T20:29:50.744Z,2.23
2022-08-02T20:32:23.961Z,2.33
2022-08-02T20:34:50.871Z,2.70
2022-08-02T20:37:56.331Z,2.77
2022-08-02T20:40:06.585Z,2.30
2022-08-02T20:42:34.508Z,2.40
2022-08-02T20:45:01.690Z,1.97
2022-08-02T20:47:39.244Z,2.23
2022-08-02T20:50:30.526Z,2.43
2022-08-02T20:52:58.689Z,1.80
2022-08-02T20:55:25.464Z,2.70
2022-08-02T20:58:00.583Z,2.60
2022-08-02T21:00:28.056Z,2.20
2022-08-02T21:02:55.122Z,2.50
2022-08-02T21:05:26.706Z,2.53
2022-08-02T21:08:13.793Z,2.10
2022-08-02T21:10:41.113Z,2.50
2022-08-02T21:13:18.720Z,2.83
2022-08-02T21:15:46.096Z,2.40
2022-08-02T21:18:25.271Z,2.87
2022-08-02T21:21:00.766Z,2.77
2022-08-02T21:23:29.266Z,2.57
2022-08-02T21:25:58.049Z,2.90
2022-08-02T21:28:43.376Z,2.40
2022-08-02T21:31:10.760Z,2.50
2022-08-02T21:33:57.761Z,2.63
2022-08-02T21:36:30.825Z,2.70
2022-08-02T21:38:58.939Z,2.47
2022-08-02T21:41:39.887Z,3.07
2022-08-02T21:44:12.511Z,3.17
2022-08-02T21:46:40.843Z,2.67
2022-08-02T21:49:11.450Z,2.60
2022-08-02T21:51:39.502Z,3.10
2022-08-02T21:54:17.719Z,2.60
2022-08-02T21:56:46.586Z,2.97
2022-08-02T21:59:16.226Z,3.10
2022-08-02T22:01:52.335Z,3.30
2022-08-02T22:04:19.517Z,2.80
2022-08-02T22:06:48.817Z,3.43
2022-08-02T22:09:17.791Z,2.87
2022-08-02T22:12:02.997Z,2.77
2022-08-02T22:14:29.715Z,3.00
2022-08-02T22:16:56.428Z,3.10
2022-08-02T22:19:23.922Z,2.87
2022-08-02T22:21:55.437Z,2.90
2022-08-02T22:24:29.889Z,3.07
2022-08-02T22:26:57.117Z,3.53
2022-08-02T22:29:23.852Z,2.83
2022-08-02T22:31:50.613Z,3.60
2022-08-02T22:34:37.231Z,3.60
2022-08-02T22:37:05.973Z,3.03
2022-08-02T22:39:34.550Z,3.37
2022-08-02T22:42:07.033Z,2.83
2022-08-02T22:44:34.141Z,2.90
2022-08-02T22:47:07.087Z,2.90
2022-08-02T22:49:38.722Z,3.07
2022-08-02T22:52:14.215Z,3.40
2022-08-02T22:54:41.245Z,3.37
2022-08-02T22:57:11.436Z,2.97
2022-08-02T22:58:38.006Z,2.30
2022-08-02T22:58:53.029Z,2.57
2022-08-02T22:59:39.852Z,2.97
2022-08-02T23:02:07.248Z,2.57
2022-08-02T23:04:34.029Z,3.23
2022-08-02T23:07:00.972Z,3.43
2022-08-02T23:09:27.736Z,3.53
2022-08-02T23:11:54.642Z,4.00
2022-08-02T23:14:21.539Z,3.43
2022-08-02T23:17:07.404Z,3.40
2022-08-02T23:19:53.671Z,3.77
2022-08-02T23:22:29.126Z,4.50
2022-08-02T23:24:56.988Z,3.77
2022-08-02T23:27:23.747Z,3.13
2022-08-02T23:29:50.603Z,3.50
2022-08-02T23:32:17.917Z,2.70
2022-08-02T23:34:44.900Z,3.17
2022-08-02T23:37:11.946Z,3.60
2022-08-02T23:39:38.747Z,3.30
2022-08-02T23:42:05.487Z,4.13
2022-08-02T23:44:32.234Z,3.40
2022-08-02T23:47:00.445Z,3.13
2022-08-02T23:49:27.311Z,3.20
2022-08-02T23:52:00.949Z,3.77
2022-08-02T23:54:28.890Z,3.10
2022-08-02T23:56:55.852Z,3.93
2022-08-02T23:59:22.633Z,2.77
